Time;durP1;ratioP1;P1;durP2;ratioP2;P2;SDS_P1;SDS_P2;PMS_P1;PMS_P2;Temp;Humidity;BMP_temperature;BMP_pressure;BME280_temperature;BME280_humidity;BME280_pressure;Samples;Min_cycle;Max_cycle;Signal;HPM_P1;HPM_P2
2024/02/27 00:02:18;;;;;;;22.38;14.52;;;12.10;91.20;;;;;;5106934;28;20047;-72
2024/02/27 00:04:46;;;;;;;20.70;13.98;;;12.00;91.10;;;;;;5089761;28;20028;-71
2024/02/27 00:07:14;;;;;;;21.05;13.98;;;12.00;91.10;;;;;;5108293;28;20047;-74
2024/02/27 00:09:44;;;;;;;23.40;12.90;;;12.00;91.20;;;;;;5103755;28;20036;-70
2024/02/27 00:12:12;;;;;;;23.20;12.45;;;12.00;91.20;;;;;;5091160;28;20036;-72
2024/02/27 00:14:40;;;;;;;21.52;12.07;;;12.00;91.10;;;;;;5104152;28;20118;-72
2024/02/27 00:17:07;;;;;;;20.10;12.63;;;11.80;91.30;;;;;;5109442;28;20044;-71
2024/02/27 00:19:34;;;;;;;19.67;13.02;;;11.80;91.50;;;;;;5101792;28;20032;-70
2024/02/27 00:22:02;;;;;;;17.08;11.95;;;11.80;91.40;;;;;;5087858;28;20046;-72
2024/02/27 00:24:31;;;;;;;17.73;11.98;;;11.80;91.40;;;;;;5101701;28;20040;-72
2024/02/27 00:26:59;;;;;;;22.13;11.00;;;11.90;91.40;;;;;;5083574;28;20122;-71
2024/02/27 00:29:26;;;;;;;22.30;11.30;;;11.70;91.50;;;;;;5101398;28;20031;-72
2024/02/27 00:31:55;;;;;;;19.60;10.60;;;11.80;91.60;;;;;;5104961;28;20039;-71
2024/02/27 00:34:22;;;;;;;14.48;8.85;;;11.80;91.50;;;;;;5107502;28;20050;-70
2024/02/27 00:36:52;;;;;;;;;;;11.80;91.50;;;;;;5107332;28;20039;-70
2024/02/27 00:39:20;;;;;;;13.90;8.35;;;11.50;92.00;;;;;;5092018;28;19927;-69
2024/02/27 00:41:50;;;;;;;16.70;9.98;;;11.60;92.10;;;;;;5108749;28;20075;-71
2024/02/27 00:44:17;;;;;;;17.00;11.88;;;11.30;92.70;;;;;;5087179;28;20138;-71
2024/02/27 00:46:45;;;;;;;19.60;9.85;;;11.30;92.90;;;;;;5103761;28;20063;-70
2024/02/27 00:49:12;;;;;;;18.80;10.60;;;11.30;92.90;;;;;;5106309;28;20050;-73
2024/02/27 00:51:40;;;;;;;16.55;10.23;;;11.30;93.00;;;;;;5108375;28;20085;-72
2024/02/27 00:54:07;;;;;;;18.52;10.60;;;11.30;92.80;;;;;;5106767;28;20427;-73
2024/02/27 00:56:35;;;;;;;15.20;11.40;;;11.40;92.80;;;;;;5110183;28;20676;-71
2024/02/27 00:59:02;;;;;;;18.95;11.68;;;11.40;92.90;;;;;;5110546;28;20043;-72
2024/02/27 01:01:30;;;;;;;22.13;13.77;;;11.30;93.20;;;;;;5065547;28;20498;-72
2024/02/27 01:03:57;;;;;;;20.63;12.75;;;11.20;93.60;;;;;;5105651;28;20043;-70
2024/02/27 01:06:24;;;;;;;23.02;14.38;;;11.10;93.80;;;;;;5106035;28;20083;-75
2024/02/27 01:08:52;;;;;;;26.48;16.33;;;11.10;94.00;;;;;;5105657;28;20075;-71
2024/02/27 01:11:19;;;;;;;24.75;16.30;;;11.10;94.10;;;;;;5106792;28;20043;-71
2024/02/27 01:13:47;;;;;;;26.15;16.08;;;11.10;94.30;;;;;;5109185;28;20058;-71
2024/02/27 01:16:14;;;;;;;26.08;16.15;;;11.10;94.20;;;;;;5087251;28;20486;-72
2024/02/27 01:18:41;;;;;;;25.83;15.93;;;11.10;94.30;;;;;;5107373;28;20031;-73
2024/02/27 01:21:08;;;;;;;22.45;14.90;;;11.10;94.20;;;;;;5107894;28;20494;-71
2024/02/27 01:23:36;;;;;;;24.65;15.93;;;11.20;94.10;;;;;;5106381;28;20393;-71
2024/02/27 01:26:03;;;;;;;30.27;15.98;;;11.20;94.10;;;;;;5086375;28;20039;-74
2024/02/27 01:28:30;;;;;;;24.17;15.70;;;11.00;94.40;;;;;;5108499;28;20122;-72
2024/02/27 01:30:57;;;;;;;24.58;15.25;;;11.00;94.60;;;;;;5102302;28;20122;-71
2024/02/27 01:33:25;;;;;;;22.60;14.23;;;10.90;94.80;;;;;;5110151;28;20031;-72
2024/02/27 01:35:52;;;;;;;20.63;15.40;;;10.80;95.10;;;;;;5109466;28;20101;-71
2024/02/27 01:38:20;;;;;;;21.30;14.60;;;10.70;95.30;;;;;;5107440;28;20042;-71
2024/02/27 01:40:47;;;;;;;25.83;15.20;;;10.60;95.40;;;;;;5113266;28;20040;-71
2024/02/27 01:43:22;;;;;;;26.05;16.05;;;10.60;95.30;;;;;;5108938;28;20190;-71
2024/02/27 01:46:17;;;;;;;25.83;17.45;;;10.50;95.40;;;;;;5088044;28;20028;-70
2024/02/27 01:48:45;;;;;;;24.85;17.30;;;10.60;95.50;;;;;;5105438;28;20082;-72
2024/02/27 01:51:14;;;;;;;22.20;15.05;;;10.60;95.40;;;;;;5112308;28;20100;-70
2024/02/27 01:53:44;;;;;;;24.17;16.10;;;10.70;95.30;;;;;;5108584;28;20055;-72
2024/02/27 01:56:12;;;;;;;26.55;16.58;;;10.90;95.00;;;;;;5110448;28;20040;-71
2024/02/27 01:58:40;;;;;;;25.08;15.23;;;11.00;94.70;;;;;;5109577;28;20071;-71
2024/02/27 02:01:09;;;;;;;25.60;18.00;;;11.10;94.50;;;;;;5095160;28;20035;-70
2024/02/27 02:03:39;;;;;;;28.00;17.02;;;10.80;94.70;;;;;;5076688;28;20044;-72
2024/02/27 02:06:07;;;;;;;19.10;14.60;;;10.90;94.70;;;;;;5067125;28;20093;-71
2024/02/27 02:08:36;;;;;;;24.38;15.93;;;10.90;94.60;;;;;;5093825;28;20046;-71
2024/02/27 02:11:08;;;;;;;20.92;14.73;;;10.60;95.30;;;;;;5110213;28;20048;-73
2024/02/27 02:13:36;;;;;;;18.65;13.57;;;10.40;95.30;;;;;;5112302;28;20536;-72
2024/02/27 02:16:04;;;;;;;15.80;13.07;;;10.40;95.50;;;;;;5108240;28;20045;-72
2024/02/27 02:18:32;;;;;;;18.38;12.55;;;10.60;95.30;;;;;;5110949;28;20116;-73
2024/02/27 02:21:00;;;;;;;17.95;12.98;;;10.60;95.00;;;;;;5110208;28;20044;-71
2024/02/27 02:23:29;;;;;;;20.67;13.30;;;10.80;94.90;;;;;;5109078;28;20093;-72
2024/02/27 02:25:59;;;;;;;17.83;12.40;;;10.90;94.70;;;;;;5106913;27;20116;-71
2024/02/27 02:28:28;;;;;;;22.27;12.57;;;10.90;94.30;;;;;;5093132;28;20043;-72
2024/02/27 02:30:55;;;;;;;19.45;12.25;;;11.00;94.10;;;;;;5104251;28;20478;-70
2024/02/27 02:33:23;;;;;;;19.30;11.20;;;11.00;94.00;;;;;;5109015;28;20044;-71
2024/02/27 02:35:51;;;;;;;17.52;11.65;;;11.00;93.90;;;;;;5112099;28;20028;-71
2024/02/27 02:38:19;;;;;;;16.98;11.73;;;11.00;93.90;;;;;;5108373;28;20110;-73
2024/02/27 02:40:46;;;;;;;16.98;12.20;;;11.00;93.70;;;;;;5112013;28;20055;-72
2024/02/27 02:43:14;;;;;;;16.25;11.75;;;11.00;93.80;;;;;;5106686;28;20040;-71
2024/02/27 02:45:41;;;;;;;16.27;11.93;;;11.00;94.00;;;;;;5108750;28;20458;-70
2024/02/27 02:48:08;;;;;;;16.95;12.02;;;10.90;94.00;;;;;;5108890;28;20055;-71
2024/02/27 02:50:36;;;;;;;16.83;11.85;;;10.80;94.30;;;;;;5107911;28;20039;-71
2024/02/27 02:53:03;;;;;;;21.38;11.68;;;10.80;94.20;;;;;;5077027;28;20088;-72
2024/02/27 02:55:32;;;;;;;18.27;12.30;;;10.80;94.00;;;;;;5104957;28;20059;-72
2024/02/27 02:58:00;;;;;;;19.60;12.20;;;10.60;94.30;;;;;;5104782;28;20399;-70
2024/02/27 03:00:27;;;;;;;20.25;12.95;;;10.30;94.90;;;;;;5093865;28;20031;-72
2024/02/27 03:02:55;;;;;;;16.77;11.88;;;10.30;94.90;;;;;;5106402;28;20039;-71
2024/02/27 03:05:23;;;;;;;20.63;12.00;;;10.20;95.30;;;;;;5109135;28;20399;-73
2024/02/27 03:07:51;;;;;;;15.95;12.32;;;10.30;95.20;;;;;;5109166;28;20063;-71
2024/02/27 03:10:18;;;;;;;16.15;11.85;;;10.50;94.90;;;;;;5110185;28;20044;-71
2024/02/27 03:12:47;;;;;;;14.25;11.15;;;10.40;94.50;;;;;;5108566;28;20093;-71
2024/02/27 03:15:15;;;;;;;17.55;11.55;;;10.20;95.10;;;;;;5111629;28;20500;-70
2024/02/27 03:17:47;;;;;;;;;;;10.40;94.90;;;;;;5091720;28;20093;-74
2024/02/27 03:20:15;;;;;;;16.20;10.52;;;10.40;94.80;;;;;;5109844;28;20361;-71
2024/02/27 03:22:42;;;;;;;15.10;11.00;;;10.50;94.50;;;;;;5110149;28;20107;-71
2024/02/27 03:25:10;;;;;;;16.23;11.57;;;10.60;94.30;;;;;;5090086;28;20471;-72
2024/02/27 03:27:38;;;;;;;16.08;11.57;;;10.60;94.30;;;;;;5107385;28;20039;-71
2024/02/27 03:30:08;;;;;;;16.58;11.80;;;10.50;94.50;;;;;;5076761;28;20466;-73
2024/02/27 03:32:36;;;;;;;14.43;10.73;;;10.60;94.40;;;;;;5105063;28;20063;-71
2024/02/27 03:35:04;;;;;;;15.45;10.30;;;10.70;94.10;;;;;;5088252;28;20284;-71
2024/02/27 03:37:31;;;;;;;16.67;10.75;;;10.80;94.00;;;;;;5103625;28;20464;-73
2024/02/27 03:39:58;;;;;;;15.45;10.90;;;10.80;93.90;;;;;;5105677;28;20248;-72
2024/02/27 03:42:26;;;;;;;18.17;10.85;;;10.80;94.00;;;;;;5110176;28;20140;-71
2024/02/27 03:44:53;;;;;;;20.08;11.10;;;10.80;94.00;;;;;;5110216;28;20057;-73
2024/02/27 03:47:21;;;;;;;15.57;10.93;;;10.80;94.00;;;;;;5107083;28;20097;-73
2024/02/27 03:49:48;;;;;;;19.02;11.43;;;10.80;94.00;;;;;;5108321;28;20065;-71
2024/02/27 03:52:16;;;;;;;23.25;12.02;;;10.80;94.00;;;;;;5108741;28;20105;-71
2024/02/27 03:54:43;;;;;;;17.35;11.15;;;10.60;94.20;;;;;;5087968;28;20143;-70
2024/02/27 03:57:11;;;;;;;17.38;11.27;;;10.50;94.30;;;;;;5108120;28;20525;-70
2024/02/27 03:59:39;;;;;;;15.07;9.93;;;10.30;94.80;;;;;;5090977;28;20039;-73
2024/02/27 04:02:07;;;;;;;16.35;10.85;;;10.40;94.60;;;;;;5107648;28;20114;-72
2024/02/27 04:04:34;;;;;;;17.42;11.95;;;10.30;94.60;;;;;;5107173;28;20065;-68
2024/02/27 04:07:02;;;;;;;17.15;12.13;;;10.30;94.90;;;;;;5105753;28;20043;-72
2024/02/27 04:09:30;;;;;;;17.50;12.02;;;10.30;94.80;;;;;;5104504;28;20122;-71
2024/02/27 04:11:57;;;;;;;15.25;11.35;;;10.30;94.60;;;;;;5089687;28;20035;-73
2024/02/27 04:14:25;;;;;;;15.60;11.85;;;10.30;94.70;;;;;;5090916;28;20048;-71
2024/02/27 04:16:52;;;;;;;16.88;12.20;;;10.30;94.80;;;;;;5106812;28;20067;-72
2024/02/27 04:19:20;;;;;;;15.85;11.85;;;10.50;94.60;;;;;;5107205;28;20039;-70
2024/02/27 04:21:47;;;;;;;19.08;13.20;;;10.50;94.40;;;;;;5109524;28;20035;-72
2024/02/27 04:24:15;;;;;;;20.75;12.50;;;10.50;94.30;;;;;;5101960;28;20135;-73
2024/02/27 04:26:43;;;;;;;15.98;12.48;;;10.50;94.60;;;;;;5108005;28;20056;-72
2024/02/27 04:29:10;;;;;;;16.70;12.23;;;10.50;94.70;;;;;;5090983;28;20063;-71
2024/02/27 04:31:37;;;;;;;16.65;11.75;;;10.50;94.50;;;;;;5092844;28;20034;-71
2024/02/27 04:34:05;;;;;;;18.70;12.00;;;10.50;94.60;;;;;;5089168;28;20506;-71
2024/02/27 04:36:33;;;;;;;19.40;12.15;;;10.40;94.60;;;;;;5102499;28;20044;-71
2024/02/27 04:39:01;;;;;;;18.80;12.13;;;10.50;94.60;;;;;;5106465;28;20038;-74
2024/02/27 04:41:28;;;;;;;15.60;11.45;;;10.50;94.60;;;;;;5106723;28;20490;-71
2024/02/27 04:43:56;;;;;;;17.23;11.80;;;10.50;94.40;;;;;;5109671;28;20443;-71
2024/02/27 04:46:23;;;;;;;19.20;12.27;;;10.50;94.50;;;;;;5109561;28;20063;-72
2024/02/27 04:48:51;;;;;;;20.50;12.30;;;10.30;94.60;;;;;;5087794;28;20039;-72
2024/02/27 04:51:18;;;;;;;18.20;12.38;;;10.00;95.30;;;;;;5108530;28;20043;-70
2024/02/27 04:53:48;;;;;;;26.42;13.73;;;10.00;95.40;;;;;;5087580;28;20491;-72
2024/02/27 04:56:15;;;;;;;22.63;13.82;;;10.10;95.40;;;;;;5106553;28;20043;-71
2024/02/27 04:58:42;;;;;;;19.77;11.60;;;10.10;95.30;;;;;;5087709;28;20047;-71
2024/02/27 05:01:13;;;;;;;18.23;12.60;;;10.20;95.20;;;;;;5108958;28;20036;-70
2024/02/27 05:03:41;;;;;;;18.88;12.27;;;10.20;95.10;;;;;;5103964;28;20036;-72
2024/02/27 05:06:08;;;;;;;16.42;10.65;;;9.90;95.60;;;;;;5107172;28;20039;-71
2024/02/27 05:08:36;;;;;;;20.38;12.40;;;9.90;96.00;;;;;;5095887;28;20778;-70
2024/02/27 05:11:03;;;;;;;16.02;11.27;;;9.80;96.00;;;;;;5109291;28;20035;-73
2024/02/27 05:13:31;;;;;;;17.77;10.88;;;9.60;96.20;;;;;;5094227;28;20057;-72
2024/02/27 05:15:58;;;;;;;18.10;11.82;;;9.70;96.50;;;;;;5092414;28;20071;-70
2024/02/27 05:18:27;;;;;;;16.40;12.00;;;9.70;96.20;;;;;;5110003;28;20066;-71
2024/02/27 05:20:54;;;;;;;17.05;11.07;;;9.80;96.10;;;;;;5091708;28;20364;-72
2024/02/27 05:23:21;;;;;;;16.33;10.80;;;9.80;96.20;;;;;;5113636;28;20031;-71
2024/02/27 05:25:49;;;;;;;16.20;12.27;;;9.80;95.60;;;;;;5106418;28;20036;-72
2024/02/27 05:28:17;;;;;;;15.77;11.57;;;9.80;96.30;;;;;;5094139;28;20433;-72
2024/02/27 05:30:44;;;;;;;17.52;12.27;;;9.90;96.00;;;;;;5088774;27;20118;-71
2024/02/27 05:33:12;;;;;;;18.25;11.98;;;10.10;95.70;;;;;;5103237;27;20406;-70
2024/02/27 05:35:45;;;;;;;19.92;12.90;;;10.20;95.20;;;;;;5110060;27;20035;-70
2024/02/27 05:38:20;;;;;;;17.70;11.73;;;10.30;95.50;;;;;;5103387;28;20063;-71
2024/02/27 05:40:55;;;;;;;17.77;12.10;;;10.20;95.40;;;;;;5110367;28;20551;-70
2024/02/27 05:43:23;;;;;;;18.30;12.63;;;10.30;95.40;;;;;;5091833;28;20066;-71
2024/02/27 05:45:50;;;;;;;19.23;12.95;;;10.40;95.60;;;;;;5107391;27;20042;-72
2024/02/27 05:48:20;;;;;;;21.42;12.98;;;10.40;95.10;;;;;;5115476;27;20039;-71
2024/02/27 05:50:48;;;;;;;18.67;12.23;;;10.40;95.20;;;;;;5086771;28;20052;-70
2024/02/27 05:53:15;;;;;;;21.10;12.50;;;10.50;95.00;;;;;;5103834;28;20044;-69
2024/02/27 05:55:42;;;;;;;17.92;12.65;;;10.20;95.30;;;;;;5107894;27;20043;-70
2024/02/27 05:58:09;;;;;;;25.45;15.65;;;10.30;95.50;;;;;;5108418;28;20027;-70
2024/02/27 06:00:36;;;;;;;32.53;20.92;;;10.50;96.10;;;;;;5112919;28;20063;-74
2024/02/27 06:03:04;;;;;;;28.85;17.88;;;10.50;95.50;;;;;;5069434;27;20050;-70
2024/02/27 06:05:31;;;;;;;19.38;13.38;;;10.50;95.00;;;;;;5090488;28;20043;-70
2024/02/27 06:07:58;;;;;;;25.52;14.45;;;10.40;95.00;;;;;;5089995;28;20036;-72
2024/02/27 06:10:27;;;;;;;26.20;14.23;;;10.40;95.10;;;;;;5109309;28;20089;-71
2024/02/27 06:12:55;;;;;;;24.85;14.10;;;10.40;94.80;;;;;;5109702;28;20052;-73
2024/02/27 06:15:22;;;;;;;24.63;13.95;;;10.30;94.90;;;;;;5087573;28;20146;-72
2024/02/27 06:17:51;;;;;;;20.90;14.05;;;10.40;94.80;;;;;;5091525;28;20494;-71
2024/02/27 06:23:06;;;;;;;69.47;37.80;;;10.80;95.20;;;;;;5102844;28;20071;-71
2024/02/27 06:25:33;;;;;;;33.55;23.10;;;11.30;95.20;;;;;;5102770;28;20032;-72
2024/02/27 06:28:00;;;;;;;30.77;18.33;;;11.50;94.20;;;;;;5109926;28;20043;-71
2024/02/27 06:30:28;;;;;;;26.77;17.17;;;11.40;93.80;;;;;;5091347;28;20036;-72
2024/02/27 06:32:55;;;;;;;35.90;18.65;;;11.20;93.70;;;;;;5106702;28;20035;-69
2024/02/27 06:35:27;;;;;;;26.15;16.02;;;11.30;94.40;;;;;;5092240;28;20057;-72
2024/02/27 06:37:54;;;;;;;27.45;16.30;;;11.40;93.50;;;;;;5088630;28;20081;-72
2024/02/27 06:40:22;;;;;;;28.13;15.10;;;11.60;93.20;;;;;;5105582;28;20118;-72
2024/02/27 06:42:50;;;;;;;23.95;14.68;;;11.50;92.60;;;;;;5108250;28;20107;-72
2024/02/27 06:45:17;;;;;;;25.02;15.90;;;11.30;92.60;;;;;;5086883;28;20032;-71
2024/02/27 06:47:45;;;;;;;30.10;14.85;;;11.30;92.70;;;;;;5107966;28;20089;-73
2024/02/27 06:50:14;;;;;;;21.10;14.57;;;11.40;92.70;;;;;;5105598;28;20043;-74
2024/02/27 06:52:41;;;;;;;24.88;14.88;;;11.10;92.30;;;;;;5110092;28;20517;-73
2024/02/27 06:55:09;;;;;;;25.33;13.45;;;11.10;92.80;;;;;;5110908;28;20039;-73
2024/02/27 06:57:36;;;;;;;23.95;12.27;;;11.10;92.70;;;;;;5105441;28;20047;-73
2024/02/27 07:00:05;;;;;;;13.18;9.80;;;11.10;91.80;;;;;;5108945;28;20541;-72
2024/02/27 07:02:33;;;;;;;16.73;8.70;;;11.20;91.90;;;;;;5107543;28;20097;-73
2024/02/27 07:05:01;;;;;;;14.38;8.57;;;11.20;91.50;;;;;;5108422;28;20759;-73
2024/02/27 07:07:29;;;;;;;12.77;8.65;;;11.10;91.50;;;;;;5110421;28;20047;-73
2024/02/27 07:09:56;;;;;;;15.00;8.73;;;11.10;91.40;;;;;;5091396;28;20490;-72
2024/02/27 07:12:24;;;;;;;12.55;8.27;;;11.10;91.30;;;;;;5107425;28;20122;-72
2024/02/27 07:14:53;;;;;;;14.60;9.27;;;11.10;91.30;;;;;;5107159;28;20122;-73
2024/02/27 07:17:23;;;;;;;12.68;9.35;;;11.20;91.40;;;;;;5110014;28;20035;-73
2024/02/27 07:19:50;;;;;;;13.83;9.73;;;11.40;91.10;;;;;;5076167;28;20039;-75
2024/02/27 07:22:18;;;;;;;12.73;8.60;;;11.30;91.30;;;;;;5108683;28;20382;-73
2024/02/27 07:24:45;;;;;;;14.90;9.45;;;11.40;91.30;;;;;;5110872;28;20488;-74
2024/02/27 07:27:12;;;;;;;12.30;8.57;;;11.50;91.30;;;;;;5105944;28;20036;-73
2024/02/27 07:29:40;;;;;;;12.73;9.15;;;11.80;91.10;;;;;;5093107;28;20036;-71
2024/02/27 07:32:07;;;;;;;16.83;8.75;;;11.90;90.90;;;;;;5091548;28;20470;-71
2024/02/27 07:34:35;;;;;;;20.10;9.35;;;12.00;90.70;;;;;;5106612;28;20032;-71
2024/02/27 07:37:03;;;;;;;14.52;9.27;;;12.00;90.60;;;;;;5106280;28;20039;-71
2024/02/27 07:39:31;;;;;;;14.55;8.82;;;12.20;90.40;;;;;;5104684;28;20075;-72
2024/02/27 07:41:58;;;;;;;15.50;10.27;;;12.40;90.30;;;;;;5106158;28;20410;-72
2024/02/27 07:44:25;;;;;;;14.27;9.45;;;12.60;90.10;;;;;;5101677;28;20048;-72
2024/02/27 07:46:52;;;;;;;17.20;8.82;;;12.90;89.90;;;;;;5102180;28;20376;-72
2024/02/27 07:49:19;;;;;;;12.02;8.70;;;12.90;89.90;;;;;;5098229;28;20046;-71
2024/02/27 07:51:47;;;;;;;10.98;7.90;;;13.10;89.50;;;;;;5114570;27;20039;-73
2024/02/27 07:54:17;;;;;;;12.27;7.32;;;13.30;89.00;;;;;;5103155;28;20047;-72
2024/02/27 07:56:44;;;;;;;11.38;7.00;;;13.50;88.10;;;;;;5107760;28;20098;-74
2024/02/27 07:59:34;;;;;;;10.80;7.00;;;13.60;88.10;;;;;;5105233;28;20051;-71
2024/02/27 08:02:01;;;;;;;11.57;6.05;;;13.70;87.50;;;;;;5109822;28;20327;-72
2024/02/27 08:04:29;;;;;;;9.48;5.50;;;13.70;87.20;;;;;;5090551;28;20062;-73
2024/02/27 08:06:56;;;;;;;10.77;6.22;;;13.70;86.90;;;;;;5107877;28;20058;-73
2024/02/27 08:09:25;;;;;;;15.30;6.78;;;13.50;87.40;;;;;;5097721;28;20097;-73
2024/02/27 08:11:53;;;;;;;8.88;5.97;;;13.70;88.00;;;;;;5109222;27;20028;-73
2024/02/27 08:14:21;;;;;;;10.73;5.93;;;14.00;86.80;;;;;;5110664;27;20043;-73
2024/02/27 08:16:48;;;;;;;9.45;5.35;;;14.20;87.00;;;;;;5102142;28;20031;-73
2024/02/27 08:19:15;;;;;;;9.32;4.95;;;14.30;86.20;;;;;;5064905;28;20040;-72
2024/02/27 08:21:43;;;;;;;13.60;5.30;;;14.50;86.60;;;;;;5100188;28;20483;-73
2024/02/27 08:24:12;;;;;;;6.72;4.97;;;14.60;85.60;;;;;;5107723;28;20039;-72
2024/02/27 08:26:42;;;;;;;16.38;5.80;;;14.70;85.70;;;;;;5103586;28;20390;-72
2024/02/27 08:29:14;;;;;;;12.88;6.28;;;14.60;85.20;;;;;;5102210;28;20044;-72
2024/02/27 08:31:41;;;;;;;9.18;6.05;;;14.50;85.50;;;;;;5110189;27;20036;-72
2024/02/27 08:34:08;;;;;;;10.45;5.65;;;14.70;85.20;;;;;;5100467;28;20043;-73
2024/02/27 08:36:36;;;;;;;11.05;6.88;;;14.90;85.00;;;;;;5116628;27;20383;-71
2024/02/27 08:39:04;;;;;;;8.93;5.20;;;15.20;84.30;;;;;;5105985;28;20062;-72
2024/02/27 08:41:33;;;;;;;8.55;5.07;;;15.50;83.70;;;;;;5105458;28;20051;-73
2024/02/27 08:44:00;;;;;;;7.88;4.63;;;15.50;82.40;;;;;;5109247;28;20114;-72
2024/02/27 08:46:29;;;;;;;7.32;4.60;;;15.30;82.70;;;;;;5107103;28;20138;-72
2024/02/27 08:48:58;;;;;;;8.20;5.70;;;15.10;83.80;;;;;;5113078;28;20032;-72
2024/02/27 08:51:25;;;;;;;13.55;5.57;;;14.80;83.90;;;;;;5107783;28;20066;-73
2024/02/27 08:53:53;;;;;;;7.22;4.40;;;14.90;84.50;;;;;;5106710;28;20368;-72
2024/02/27 08:56:20;;;;;;;11.48;4.60;;;15.00;84.20;;;;;;5105679;28;20040;-72
2024/02/27 08:58:48;;;;;;;10.35;4.57;;;15.10;84.10;;;;;;5087057;28;20047;-72
2024/02/27 09:01:15;;;;;;;8.70;4.80;;;14.90;84.60;;;;;;5108411;28;20036;-73
2024/02/27 09:03:43;;;;;;;8.13;4.53;;;14.90;84.50;;;;;;5087106;28;20047;-74
2024/02/27 09:06:11;;;;;;;13.90;5.05;;;15.20;84.20;;;;;;5105276;28;20032;-73
2024/02/27 09:08:39;;;;;;;10.57;5.30;;;15.10;83.90;;;;;;5105091;28;20059;-72
2024/02/27 09:11:07;;;;;;;8.38;5.00;;;15.00;84.20;;;;;;5109265;28;20032;-72
2024/02/27 09:13:35;;;;;;;10.63;5.03;;;15.30;84.00;;;;;;5107263;28;20032;-72
2024/02/27 09:16:02;;;;;;;14.15;5.38;;;14.90;84.80;;;;;;5106625;28;20091;-73
2024/02/27 09:18:29;;;;;;;6.60;4.68;;;15.00;84.80;;;;;;5105912;28;20039;-71
2024/02/27 09:20:58;;;;;;;8.32;5.32;;;15.40;84.10;;;;;;5104508;28;20531;-73
2024/02/27 09:23:25;;;;;;;9.25;5.88;;;15.60;82.70;;;;;;5090472;28;20085;-72
2024/02/27 09:25:53;;;;;;;12.10;4.85;;;15.30;82.80;;;;;;5086117;28;20504;-71
2024/02/27 09:28:20;;;;;;;11.02;6.18;;;15.50;83.00;;;;;;5107243;28;20040;-72
2024/02/27 09:30:47;;;;;;;12.60;5.13;;;15.80;81.80;;;;;;5106664;28;20039;-73
2024/02/27 09:33:15;;;;;;;8.82;5.20;;;15.80;81.00;;;;;;5103257;28;20399;-73
2024/02/27 09:35:42;;;;;;;8.90;5.75;;;16.30;81.00;;;;;;5108315;28;20070;-72
2024/02/27 09:38:10;;;;;;;10.90;5.38;;;16.50;80.00;;;;;;5105200;28;20391;-73
2024/02/27 09:40:41;;;;;;;8.60;6.20;;;16.60;80.60;;;;;;5102739;28;20035;-73
2024/02/27 09:43:16;;;;;;;12.65;6.55;;;16.70;78.90;;;;;;5086818;28;20040;-73
2024/02/27 09:45:44;;;;;;;11.23;6.85;;;16.40;79.00;;;;;;5100695;28;20039;-73
2024/02/27 09:48:16;;;;;;;11.05;6.57;;;16.70;79.10;;;;;;5110023;28;20047;-71
2024/02/27 09:50:47;;;;;;;8.85;5.03;;;16.80;78.40;;;;;;5103548;28;20376;-72
2024/02/27 09:53:15;;;;;;;;;;;16.70;78.00;;;;;;5092115;28;20046;-73
2024/02/27 09:55:51;;;;;;;7.53;5.00;;;16.80;78.00;;;;;;5108937;28;20290;-72
2024/02/27 09:58:21;;;;;;;8.13;4.93;;;17.10;78.00;;;;;;5107912;28;20530;-73
2024/02/27 10:00:57;;;;;;;9.55;5.38;;;17.00;77.80;;;;;;5111824;28;20399;-74
2024/02/27 10:03:25;;;;;;;10.38;5.90;;;17.50;77.10;;;;;;5112440;28;20192;-73
2024/02/27 10:05:55;;;;;;;9.68;5.28;;;17.10;76.60;;;;;;5109440;28;20067;-73
2024/02/27 10:08:25;;;;;;;11.10;5.47;;;16.80;78.50;;;;;;5092002;28;20399;-72
2024/02/27 10:10:54;;;;;;;9.38;5.25;;;16.70;78.30;;;;;;5107373;28;20043;-72
2024/02/27 10:13:23;;;;;;;13.27;5.10;;;16.80;78.30;;;;;;5108488;28;20035;-74
2024/02/27 10:15:51;;;;;;;11.85;5.38;;;16.90;77.60;;;;;;5106228;28;20039;-71
2024/02/27 10:18:19;;;;;;;11.10;5.32;;;16.90;77.80;;;;;;5111444;28;20047;-73
2024/02/27 10:20:48;;;;;;;12.32;5.13;;;16.90;78.40;;;;;;5106851;28;20062;-75
2024/02/27 10:23:15;;;;;;;11.48;5.40;;;17.10;78.10;;;;;;5111262;28;20075;-73
2024/02/27 10:25:43;;;;;;;7.40;4.70;;;17.60;76.90;;;;;;5104282;28;20119;-71
2024/02/27 10:28:11;;;;;;;9.32;4.80;;;18.10;75.40;;;;;;5110682;28;20506;-72
2024/02/27 10:30:40;;;;;;;8.77;4.57;;;18.40;74.20;;;;;;5077965;28;20122;-72
2024/02/27 10:33:11;;;;;;;9.57;4.60;;;18.60;74.40;;;;;;5092156;28;20036;-74
2024/02/27 10:35:38;;;;;;;9.23;4.63;;;18.70;73.00;;;;;;5107390;28;20470;-71
2024/02/27 10:38:19;;;;;;;12.80;4.60;;;18.40;73.70;;;;;;5108483;28;20050;-72
2024/02/27 10:40:49;;;;;;;12.77;4.97;;;18.60;73.40;;;;;;5109247;28;20043;-72
2024/02/27 10:43:18;;;;;;;13.00;5.07;;;18.50;73.60;;;;;;5093231;28;20043;-73
2024/02/27 10:45:48;;;;;;;9.80;4.70;;;18.50;72.80;;;;;;5103640;28;20160;-74
2024/02/27 10:48:16;;;;;;;8.90;5.15;;;18.00;73.60;;;;;;5094324;28;20039;-72
2024/02/27 10:50:50;;;;;;;8.65;4.85;;;18.20;73.90;;;;;;5111167;27;20118;-73
2024/02/27 10:53:19;;;;;;;8.95;4.60;;;19.10;72.60;;;;;;5109599;28;20458;-73
2024/02/27 10:55:48;;;;;;;7.97;4.40;;;19.70;70.60;;;;;;5106943;28;20042;-72
2024/02/27 10:58:16;;;;;;;7.88;3.95;;;20.00;70.00;;;;;;5107078;28;20096;-72
2024/02/27 11:00:43;;;;;;;9.05;4.88;;;20.40;69.20;;;;;;5094475;28;20506;-73
2024/02/27 11:03:13;;;;;;;17.38;9.63;;;20.40;69.00;;;;;;5091021;28;20032;-70
2024/02/27 11:05:46;;;;;;;14.10;5.78;;;20.40;70.90;;;;;;5106462;28;20039;-72
2024/02/27 11:08:15;;;;;;;8.63;4.00;;;19.60;69.70;;;;;;5098736;28;20046;-73
2024/02/27 11:10:44;;;;;;;8.52;4.95;;;19.00;70.90;;;;;;5110864;28;20066;-75
2024/02/27 11:13:16;;;;;;;10.80;4.47;;;19.30;71.70;;;;;;5109857;27;20480;-73
2024/02/27 11:15:46;;;;;;;11.88;5.28;;;19.70;70.30;;;;;;5118036;27;20039;-73
2024/02/27 11:18:18;;;;;;;8.85;5.05;;;19.70;69.80;;;;;;5104571;28;20032;-73
2024/02/27 11:20:47;;;;;;;10.38;4.95;;;20.20;68.00;;;;;;5107116;28;20036;-72
2024/02/27 11:23:15;;;;;;;13.93;4.90;;;19.20;69.70;;;;;;5111032;28;20487;-75
2024/02/27 11:25:42;;;;;;;7.85;4.85;;;18.70;71.50;;;;;;5104730;28;20085;-72
2024/02/27 11:28:10;;;;;;;9.13;4.80;;;18.30;71.60;;;;;;5098700;28;20039;-73
2024/02/27 11:30:43;;;;;;;6.65;4.35;;;18.40;72.30;;;;;;5109480;28;20040;-73
2024/02/27 11:33:12;;;;;;;8.45;4.40;;;18.80;71.10;;;;;;5098324;28;20398;-76
2024/02/27 11:35:39;;;;;;;8.50;4.10;;;18.50;70.80;;;;;;5103419;28;20040;-75
2024/02/27 11:38:06;;;;;;;9.65;4.97;;;18.30;72.40;;;;;;5102724;28;20142;-73
2024/02/27 11:40:48;;;;;;;7.60;4.75;;;18.50;71.70;;;;;;5117224;27;20042;-73
2024/02/27 11:43:16;;;;;;;7.90;4.45;;;18.40;72.40;;;;;;5108160;27;20044;-73
2024/02/27 11:45:43;;;;;;;8.48;4.60;;;18.60;72.40;;;;;;5120875;27;20390;-73
2024/02/27 11:48:11;;;;;;;11.35;4.10;;;19.10;70.50;;;;;;5115250;27;20067;-73
2024/02/27 11:50:40;;;;;;;9.07;4.70;;;18.80;71.20;;;;;;5113400;27;20414;-74
2024/02/27 11:53:17;;;;;;;13.00;6.90;;;18.80;71.60;;;;;;5132143;27;20121;-73
2024/02/27 11:55:49;;;;;;;7.68;4.95;;;19.20;71.30;;;;;;5136347;27;20410;-74
2024/02/27 11:58:20;;;;;;;10.38;4.45;;;19.50;69.60;;;;;;5134667;27;20039;-74
2024/02/27 12:00:48;;;;;;;9.30;4.07;;;19.50;69.80;;;;;;5140070;27;20133;-72
2024/02/27 12:03:16;;;;;;;7.60;4.68;;;19.50;68.70;;;;;;5137684;27;20114;-72
2024/02/27 12:05:46;;;;;;;10.45;4.53;;;18.80;70.40;;;;;;5136095;27;20035;-72
2024/02/27 12:08:16;;;;;;;11.73;4.40;;;18.60;70.90;;;;;;5106759;27;20030;-73
2024/02/27 12:10:45;;;;;;;9.75;4.25;;;18.20;72.70;;;;;;5124763;27;20111;-73
2024/02/27 12:13:13;;;;;;;8.65;4.28;;;17.60;73.00;;;;;;5102664;27;20054;-74
2024/02/27 12:15:41;;;;;;;11.63;4.57;;;17.60;73.00;;;;;;5129833;27;20031;-72
2024/02/27 12:18:08;;;;;;;13.55;5.10;;;17.60;73.30;;;;;;5134270;27;20042;-74
2024/02/27 12:20:36;;;;;;;21.55;4.80;;;17.50;73.90;;;;;;5117245;27;20050;-74
2024/02/27 12:23:04;;;;;;;11.55;4.68;;;17.60;72.90;;;;;;5128072;27;20035;-74
2024/02/27 12:25:44;;;;;;;7.70;4.65;;;17.70;72.90;;;;;;5134263;27;20043;-74
2024/02/27 12:28:12;;;;;;;;;;;17.90;72.00;;;;;;5133560;27;20450;-73
2024/02/27 12:30:47;;;;;;;10.23;4.85;;;18.00;71.20;;;;;;5136819;27;20393;-73
2024/02/27 12:33:16;;;;;;;7.65;4.32;;;17.70;72.10;;;;;;5132851;27;20447;-72
2024/02/27 12:35:45;;;;;;;10.68;4.30;;;17.60;72.20;;;;;;5135935;27;20350;-72
2024/02/27 12:38:13;;;;;;;9.75;4.80;;;17.60;72.80;;;;;;5127371;27;20119;-74
2024/02/27 12:40:41;;;;;;;8.80;4.47;;;17.90;72.40;;;;;;5129977;27;20031;-73
2024/02/27 12:43:08;;;;;;;11.75;5.38;;;18.00;72.80;;;;;;5135082;27;20043;-73
2024/02/27 12:45:36;;;;;;;7.63;4.72;;;17.90;72.40;;;;;;5134550;27;20133;-74